Time;durP1;ratioP1;P1;durP2;ratioP2;P2;SDS_P1;SDS_P2;PMS_P1;PMS_P2;Temp;Humidity;BMP_temperature;BMP_pressure;BME280_temperature;BME280_humidity;BME280_pressure;Samples;Min_cycle;Max_cycle;Signal;HPM_P1;HPM_P2
2022/11/30 00:00:19;;;;;;;;;;;;;;;8.19;78.14;98577.50;7389760;19;19915;-74
2022/11/30 00:02:46;;;;;;;;;;;;;;;8.12;77.98;98575.41;7390191;19;19941;-75
2022/11/30 00:05:13;;;;;;;;;;;;;;;8.10;78.19;98576.53;7388325;19;19926;-74
2022/11/30 00:07:39;;;;;;;;;;;;;;;8.02;78.38;98582.47;7389581;19;19919;-74
2022/11/30 00:10:07;;;;;;;;;;;;;;;8.12;78.06;98566.69;7383831;19;19919;-75
2022/11/30 00:12:33;;;;;;;;;;;;;;;8.10;77.87;98569.44;7391434;19;20438;-74
2022/11/30 00:15:00;;;;;;;;;;;;;;;8.13;78.33;98568.34;7385482;19;19953;-74
2022/11/30 00:17:26;;;;;;;;;;;;;;;8.08;78.10;98568.78;7388348;19;19930;-75
2022/11/30 00:19:53;;;;;;;;;;;;;;;8.06;78.35;98570.69;7388761;19;19923;-74
2022/11/30 00:22:20;;;;;;;;;;;;;;;8.14;78.46;98565.59;7385609;19;19923;-74
2022/11/30 00:24:46;;;;;;;;;;;;;;;8.11;78.40;98571.13;7385613;19;19923;-75
2022/11/30 00:27:13;;;;;;;;;;;;;;;8.12;78.38;98571.94;7384602;19;19907;-75
2022/11/30 00:29:40;;;;;;;;;;;;;;;8.02;78.73;98561.38;7382110;19;20575;-74
2022/11/30 00:32:07;;;;;;;;;;;;;;;8.07;78.32;98563.63;7386289;19;19955;-75
2022/11/30 00:34:33;;;;;;;;;;;;;;;8.11;78.18;98560.59;7387626;19;19919;-75
2022/11/30 00:37:00;;;;;;;;;;;;;;;8.13;78.02;98566.53;7387406;19;19940;-75
2022/11/30 00:39:26;;;;;;;;;;;;;;;8.05;77.98;98565.56;7384205;19;19915;-74
2022/11/30 00:42:00;;;;;;;;;;;;;;;7.96;78.26;98555.84;7382587;19;19915;-75
2022/11/30 00:44:27;;;;;;;;;;;;;;;7.97;78.44;98555.69;7385292;19;19919;-74
2022/11/30 00:46:53;;;;;;;;;;;;;;;7.73;79.06;98563.94;7389826;19;19932;-74
2022/11/30 00:49:20;;;;;;;;;;;;;;;7.79;78.90;98571.28;7387014;19;19940;-75
2022/11/30 00:51:46;;;;;;;;;;;;;;;7.78;78.81;98564.38;7389938;19;19943;-74
2022/11/30 00:54:13;;;;;;;;;;;;;;;7.80;78.97;98570.34;7387093;19;20389;-74
2022/11/30 00:56:40;;;;;;;;;;;;;;;7.76;79.24;98558.38;7387111;19;20913;-75
2022/11/30 00:59:06;;;;;;;;;;;;;;;7.70;78.88;98559.75;7382476;19;19926;-74
2022/11/30 01:01:34;;;;;;;;;;;;;;;7.86;78.95;98561.88;7387706;19;20494;-74
2022/11/30 01:04:01;;;;;;;;;;;;;;;7.98;78.44;98559.16;7387343;19;20334;-74
2022/11/30 01:06:28;;;;;;;;;;;;;;;7.79;78.93;98565.19;7386093;19;22776;-75
2022/11/30 01:08:54;;;;;;;;;;;;;;;7.95;78.53;98564.69;7387837;19;20347;-75
2022/11/30 01:11:25;;;;;;;;;;;;;;;7.90;78.45;98568.56;7388606;19;20342;-75
2022/11/30 01:13:52;;;;;;;;;;;;;;;7.82;78.63;98568.41;7383174;19;20053;-75
2022/11/30 01:16:20;;;;;;;;;;;;;;;7.78;78.73;98567.00;7375755;19;19982;-75
2022/11/30 01:18:47;;;;;;;;;;;;;;;7.82;nan;98571.03;7383494;19;19915;-74
2022/11/30 01:21:15;;;;;;;;;;;;;;;7.81;78.85;98571.16;7386342;19;19919;-74
2022/11/30 01:23:41;;;;;;;;;;;;;;;7.96;78.32;98571.66;7385027;19;19989;-74
2022/11/30 01:26:08;;;;;;;;;;;;;;;7.88;78.40;98574.94;7383844;19;19929;-75
2022/11/30 01:28:35;;;;;;;;;;;;;;;7.90;78.27;98579.09;7385176;19;19930;-74
2022/11/30 01:31:03;;;;;;;;;;;;;;;7.91;78.34;98574.66;7383036;19;19953;-74
2022/11/30 01:33:29;;;;;;;;;;;;;;;7.96;78.26;98582.19;7381990;19;19911;-75
2022/11/30 01:36:02;;;;;;;;;;;;;;;8.05;77.95;98578.72;7383585;19;20354;-74
2022/11/30 01:38:33;;;;;;;;;;;;;;;8.02;77.99;98581.63;7387899;19;20347;-74
2022/11/30 01:41:00;;;;;;;;;;;;;;;7.96;78.19;98577.75;7384116;19;19915;-74
2022/11/30 01:43:40;;;;;;;;;;;;;;;7.91;78.36;98586.03;7382807;19;19918;-74
2022/11/30 01:46:20;;;;;;;;;;;;;;;7.94;78.54;98592.84;7380096;19;20288;-75
2022/11/30 01:48:47;;;;;;;;;;;;;;;8.00;78.31;98583.56;7380954;19;19919;-74
2022/11/30 01:51:14;;;;;;;;;;;;;;;8.04;78.11;98585.81;7384670;19;20297;-74
2022/11/30 01:53:41;;;;;;;;;;;;;;;8.01;78.15;98579.97;7387094;19;19915;-74
2022/11/30 01:56:08;;;;;;;;;;;;;;;8.01;77.99;98585.25;7383174;19;20379;-75
2022/11/30 01:58:35;;;;;;;;;;;;;;;8.02;78.14;98584.25;7385752;19;20346;-74
2022/11/30 02:01:02;;;;;;;;;;;;;;;8.00;78.17;98581.75;7388873;19;20336;-74
2022/11/30 02:03:40;;;;;;;;;;;;;;;7.91;78.67;98587.84;7383948;19;20544;-74
2022/11/30 02:06:07;;;;;;;;;;;;;;;7.94;78.69;98595.47;7381454;19;19940;-74
2022/11/30 02:08:34;;;;;;;;;;;;;;;8.01;78.47;98590.50;7383511;19;19953;-74
2022/11/30 02:11:05;;;;;;;;;;;;;;;8.01;78.39;98585.25;7385109;19;20300;-74
2022/11/30 02:13:51;;;;;;;;;;;;;;;8.06;78.22;98588.31;7384149;19;20355;-75
2022/11/30 02:16:24;;;;;;;;;;;;;;;7.91;78.34;98593.94;7384189;19;20296;-75
2022/11/30 02:19:09;;;;;;;;;;;;;;;7.86;78.71;98590.88;7382500;19;19951;-75
2022/11/30 02:21:56;;;;;;;;;;;;;;;7.97;78.67;98594.38;7384260;19;19935;-74
2022/11/30 02:24:42;;;;;;;;;;;;;;;8.03;78.55;98593.81;7379517;19;19926;-74
2022/11/30 02:27:22;;;;;;;;;;;;;;;8.02;78.15;98586.91;7383294;19;20426;-74
2022/11/30 02:29:54;;;;;;;;;;;;;;;7.91;78.46;98587.84;7379968;19;19919;-74
2022/11/30 02:32:22;;;;;;;;;;;;;;;7.90;78.39;98588.81;7381954;19;19946;-75
2022/11/30 02:34:48;;;;;;;;;;;;;;;8.04;78.30;98587.59;7383190;19;20292;-74
2022/11/30 02:37:15;;;;;;;;;;;;;;;8.06;78.05;98590.94;7380877;19;20453;-75
2022/11/30 02:39:42;;;;;;;;;;;;;;;7.94;78.46;98590.22;7377463;19;19941;-74
2022/11/30 02:42:10;;;;;;;;;;;;;;;8.03;78.09;98588.56;7378118;19;20049;-75
2022/11/30 02:44:42;;;;;;;;;;;;;;;7.90;78.05;98594.91;7380820;19;20014;-74
2022/11/30 02:47:09;;;;;;;;;;;;;;;7.95;78.30;98588.41;7382686;19;19930;-74
2022/11/30 02:49:36;;;;;;;;;;;;;;;8.00;78.17;98588.84;7383020;19;19947;-75
2022/11/30 02:52:02;;;;;;;;;;;;;;;7.93;78.22;98595.63;7381000;19;19923;-74
2022/11/30 02:54:29;;;;;;;;;;;;;;;7.90;78.34;98589.66;7382592;19;20268;-75
2022/11/30 02:56:56;;;;;;;;;;;;;;;7.81;78.68;98593.06;7377784;19;19936;-74
2022/11/30 02:59:23;;;;;;;;;;;;;;;7.93;78.50;98590.34;7378782;19;19953;-74
2022/11/30 03:01:49;;;;;;;;;;;;;;;7.89;78.33;98592.41;7380149;19;19935;-74
2022/11/30 03:04:16;;;;;;;;;;;;;;;7.91;78.59;98590.47;7382273;19;19925;-75
2022/11/30 03:06:42;;;;;;;;;;;;;;;7.97;78.51;98589.09;7385449;19;19919;-74
2022/11/30 03:09:09;;;;;;;;;;;;;;;7.87;78.66;98595.19;7382039;19;19936;-74
2022/11/30 03:11:36;;;;;;;;;;;;;;;8.01;78.38;98595.78;7378901;19;19957;-75
2022/11/30 03:14:02;;;;;;;;;;;;;;;8.01;78.19;98595.78;7372099;19;20353;-74
2022/11/30 03:16:29;;;;;;;;;;;;;;;7.92;78.24;98602.66;7376921;19;19931;-74
2022/11/30 03:18:56;;;;;;;;;;;;;;;7.87;78.61;98600.47;7379510;19;19919;-74
2022/11/30 03:21:23;;;;;;;;;;;;;;;7.95;78.38;98602.41;7380473;19;19967;-75
2022/11/30 03:23:50;;;;;;;;;;;;;;;8.02;78.26;98600.06;7379842;19;19923;-74
2022/11/30 03:26:16;;;;;;;;;;;;;;;8.06;78.19;98609.41;7379310;19;19946;-75
2022/11/30 03:28:43;;;;;;;;;;;;;;;8.13;77.71;98602.59;7376128;19;19917;-74
2022/11/30 03:31:11;;;;;;;;;;;;;;;8.19;77.61;98606.50;7378702;19;19944;-75
2022/11/30 03:33:42;;;;;;;;;;;;;;;8.00;78.21;98610.72;7378210;19;19915;-75
2022/11/30 03:36:09;;;;;;;;;;;;;;;8.05;77.92;98607.72;7380690;19;19945;-74
2022/11/30 03:38:36;;;;;;;;;;;;;;;7.96;78.06;98605.91;7379379;19;19922;-75
2022/11/30 03:41:04;;;;;;;;;;;;;;;8.03;78.08;98609.63;7379674;19;20331;-75
2022/11/30 03:43:30;;;;;;;;;;;;;;;8.10;77.99;98605.50;7378505;19;19963;-74
2022/11/30 03:45:57;;;;;;;;;;;;;;;7.93;78.01;98614.06;7376028;19;19922;-74
2022/11/30 03:48:24;;;;;;;;;;;;;;;7.89;78.27;98606.41;7378326;19;19919;-75
2022/11/30 03:50:51;;;;;;;;;;;;;;;8.04;78.29;98609.50;7382477;19;19926;-74
2022/11/30 03:53:18;;;;;;;;;;;;;;;8.01;78.21;98611.59;7390424;19;19951;-75
2022/11/30 03:55:45;;;;;;;;;;;;;;;7.97;78.32;98615.44;7391292;19;19919;-75
2022/11/30 03:58:12;;;;;;;;;;;;;;;8.02;78.29;98615.88;7389868;19;19922;-74
2022/11/30 04:00:38;;;;;;;;;;;;;;;8.06;78.18;98614.66;7390723;19;19970;-75
2022/11/30 04:03:05;;;;;;;;;;;;;;;8.01;78.10;98606.31;7386954;19;20573;-74
2022/11/30 04:05:31;;;;;;;;;;;;;;;7.96;78.52;98608.53;7385421;19;19923;-75
2022/11/30 04:07:58;;;;;;;;;;;;;;;7.89;78.53;98606.41;7389742;19;19943;-74
2022/11/30 04:10:25;;;;;;;;;;;;;;;8.02;78.26;98613.25;7388776;19;20048;-75
2022/11/30 04:12:51;;;;;;;;;;;;;;;8.01;78.31;98611.59;7390772;19;19949;-74
2022/11/30 04:15:18;;;;;;;;;;;;;;;7.93;78.32;98614.06;7389493;19;19915;-75
2022/11/30 04:17:45;;;;;;;;;;;;;;;7.95;78.63;98610.31;7388189;19;19927;-75
2022/11/30 04:20:11;;;;;;;;;;;;;;;8.06;78.24;98612.03;7382182;19;20591;-75
2022/11/30 04:22:42;;;;;;;;;;;;;;;8.01;78.34;98614.22;7382818;19;19922;-75
2022/11/30 04:25:08;;;;;;;;;;;;;;;7.93;78.56;98608.78;7383942;19;19947;-75
2022/11/30 04:27:35;;;;;;;;;;;;;;;7.94;78.08;98616.53;7388238;19;19926;-74
2022/11/30 04:30:01;;;;;;;;;;;;;;;7.86;78.45;98611.94;7385356;19;20286;-75
2022/11/30 04:32:28;;;;;;;;;;;;;;;7.90;78.48;98613.34;7385351;19;20350;-75
2022/11/30 04:34:55;;;;;;;;;;;;;;;8.01;78.17;98614.22;7384144;19;19922;-75
2022/11/30 04:37:21;;;;;;;;;;;;;;;8.03;78.10;98620.19;7383141;19;20394;-74
2022/11/30 04:39:48;;;;;;;;;;;;;;;8.03;77.85;98614.91;7385044;19;19951;-74
2022/11/30 04:42:14;;;;;;;;;;;;;;;8.04;77.71;98620.06;7383656;19;19914;-75
2022/11/30 04:44:41;;;;;;;;;;;;;;;8.02;78.01;98616.72;7386339;19;19929;-74
2022/11/30 04:47:07;;;;;;;;;;;;;;;7.88;78.23;98623.19;7388840;19;19915;-75
2022/11/30 04:49:34;;;;;;;;;;;;;;;7.89;78.12;98616.94;7380733;19;19923;-74
2022/11/30 04:52:00;;;;;;;;;;;;;;;7.86;78.49;98614.56;7384315;19;19926;-74
2022/11/30 04:54:27;;;;;;;;;;;;;;;8.05;77.70;98620.88;7380371;19;20043;-75
2022/11/30 04:56:54;;;;;;;;;;;;;;;8.00;77.81;98620.44;7387470;19;20341;-74
2022/11/30 04:59:21;;;;;;;;;;;;;;;8.04;77.83;98620.06;7381434;19;19939;-75
2022/11/30 05:01:47;;;;;;;;;;;;;;;8.03;77.69;98617.53;7385538;19;19940;-74
2022/11/30 05:04:14;;;;;;;;;;;;;;;8.09;77.88;98619.66;7379058;19;19990;-74
2022/11/30 05:06:41;;;;;;;;;;;;;;;8.00;77.88;98615.19;7378286;19;19932;-75
2022/11/30 05:09:07;;;;;;;;;;;;;;;8.02;78.06;98623.78;7381659;19;20350;-74
2022/11/30 05:11:34;;;;;;;;;;;;;;;8.06;77.74;98615.50;7384150;19;19922;-74
2022/11/30 05:14:00;;;;;;;;;;;;;;;8.05;77.98;98623.53;7382960;19;20319;-75
2022/11/30 05:16:27;;;;;;;;;;;;;;;8.06;77.64;98625.19;7383756;19;19918;-75
2022/11/30 05:18:54;;;;;;;;;;;;;;;7.89;78.15;98622.22;7380266;19;19915;-74
2022/11/30 05:21:21;;;;;;;;;;;;;;;7.82;78.41;98621.09;7385754;19;19952;-74
2022/11/30 05:23:47;;;;;;;;;;;;;;;7.85;78.56;98622.63;7381020;19;19919;-74
2022/11/30 05:26:14;;;;;;;;;;;;;;;7.84;78.41;98627.03;7386621;19;19922;-75
2022/11/30 05:28:41;;;;;;;;;;;;;;;7.88;78.39;98628.44;7381199;19;19926;-74
2022/11/30 05:31:08;;;;;;;;;;;;;;;7.83;78.69;98633.28;7377467;19;19943;-75
2022/11/30 05:33:34;;;;;;;;;;;;;;;7.97;78.14;98636.53;7385901;19;19915;-75
2022/11/30 05:36:01;;;;;;;;;;;;;;;7.98;78.00;98625.88;7380627;19;19951;-74
2022/11/30 05:38:36;;;;;;;;;;;;;;;8.04;77.93;98635.03;7376358;19;19952;-74
2022/11/30 05:41:02;;;;;;;;;;;;;;;8.12;77.79;98629.94;7376956;19;20826;-74
2022/11/30 05:43:29;;;;;;;;;;;;;;;7.90;78.20;98631.78;7379471;19;20374;-74
2022/11/30 05:45:59;;;;;;;;;;;;;;;7.94;78.35;98635.00;7381468;19;19930;-75
2022/11/30 05:48:26;;;;;;;;;;;;;;;7.97;78.03;98637.34;7378042;19;19955;-74
2022/11/30 05:50:54;;;;;;;;;;;;;;;7.99;77.94;98631.97;7380192;19;20453;-75
2022/11/30 05:53:20;;;;;;;;;;;;;;;8.02;77.81;98637.78;7372807;19;19919;-74
2022/11/30 05:55:47;;;;;;;;;;;;;;;7.83;78.26;98637.72;7381132;19;19915;-74
2022/11/30 05:58:13;;;;;;;;;;;;;;;7.90;78.47;98637.06;7380554;19;19919;-74
2022/11/30 06:00:40;;;;;;;;;;;;;;;7.96;78.50;98635.69;7386381;19;19922;-75
2022/11/30 06:03:06;;;;;;;;;;;;;;;7.87;78.62;98639.97;7383744;19;20350;-74
2022/11/30 06:05:34;;;;;;;;;;;;;;;7.98;78.55;98639.03;7386218;19;19983;-74
2022/11/30 06:08:01;;;;;;;;;;;;;;;7.89;78.27;98638.00;7386858;19;20349;-75
2022/11/30 06:10:27;;;;;;;;;;;;;;;7.95;78.37;98636.66;7382937;19;19947;-74
2022/11/30 06:12:54;;;;;;;;;;;;;;;7.97;78.46;98633.88;7382434;19;19915;-75
2022/11/30 06:15:21;;;;;;;;;;;;;;;8.06;78.13;98635.75;7381702;19;19926;-75
2022/11/30 06:17:48;;;;;;;;;;;;;;;8.06;77.95;98635.75;7385370;19;19939;-75
2022/11/30 06:20:15;;;;;;;;;;;;;;;8.01;77.81;98643.22;7378976;19;19915;-75
2022/11/30 06:22:43;;;;;;;;;;;;;;;7.95;78.22;98636.66;7384327;19;19957;-75
2022/11/30 06:25:09;;;;;;;;;;;;;;;7.96;78.26;98640.97;7384237;19;19918;-75
2022/11/30 06:27:36;;;;;;;;;;;;;;;7.98;78.59;98638.19;7378075;19;19926;-75
2022/11/30 06:30:03;;;;;;;;;;;;;;;7.96;78.51;98630.44;7374834;19;19927;-75
2022/11/30 06:32:29;;;;;;;;;;;;;;;7.95;78.40;98634.00;7385388;19;19922;-75
2022/11/30 06:34:56;;;;;;;;;;;;;;;8.02;78.12;98629.06;7382566;19;19915;-75
2022/11/30 06:37:23;;;;;;;;;;;;;;;7.84;78.57;98632.31;7387030;19;20263;-75
2022/11/30 06:39:50;;;;;;;;;;;;;;;7.83;78.74;98633.28;7382479;19;19923;-75
2022/11/30 06:42:32;;;;;;;;;;;;;;;7.94;78.74;98631.53;7381231;19;20240;-75
2022/11/30 06:44:58;;;;;;;;;;;;;;;8.00;77.98;98638.88;7381491;19;19929;-76
2022/11/30 06:47:25;;;;;;;;;;;;;;;7.89;78.17;98632.75;7386420;19;20647;-75
2022/11/30 06:49:52;;;;;;;;;;;;;;;7.94;78.10;98634.16;7378546;19;19982;-76
2022/11/30 06:52:19;;;;;;;;;;;;;;;7.93;78.07;98637.78;7381574;19;19923;-75
2022/11/30 06:54:46;;;;;;;;;;;;;;;7.93;78.38;98641.25;7386818;19;19967;-76
2022/11/30 06:57:13;;;;;;;;;;;;;;;8.02;77.97;98642.22;7382387;19;19947;-75
2022/11/30 06:59:43;;;;;;;;;;;;;;;8.09;77.79;98640.75;7378357;19;20366;-75
2022/11/30 07:02:12;;;;;;;;;;;;;;;8.04;78.02;98648.22;7383067;19;19944;-75
2022/11/30 07:04:44;;;;;;;;;;;;;;;8.05;78.29;98648.06;7382869;19;19915;-75
2022/11/30 07:07:11;;;;;;;;;;;;;;;7.89;78.42;98651.19;7381805;19;20345;-75
2022/11/30 07:09:37;;;;;;;;;;;;;;;8.00;78.31;98657.34;7386382;19;19922;-75
2022/11/30 07:12:04;;;;;;;;;;;;;;;8.05;78.49;98658.59;7385784;19;20275;-75
2022/11/30 07:14:37;;;;;;;;;;;;;;;8.07;77.96;98655.84;7383869;19;20263;-76
2022/11/30 07:17:07;;;;;;;;;;;;;;;8.03;78.30;98657.06;7384863;19;19919;-75
2022/11/30 07:19:34;;;;;;;;;;;;;;;8.08;78.28;98654.88;7386383;19;19933;-75
2022/11/30 07:22:01;;;;;;;;;;;;;;;8.05;78.38;98655.97;7383792;19;19923;-74
2022/11/30 07:27:14;;;;;;;;;;;;;;;8.00;78.17;98654.69;7389863;19;19927;-76
2022/11/30 07:29:43;;;;;;;;;;;;;;;8.10;78.17;98663.47;7394303;19;19978;-75
2022/11/30 07:32:10;;;;;;;;;;;;;;;8.13;78.23;98664.03;7393895;19;19986;-74
2022/11/30 07:34:36;;;;;;;;;;;;;;;8.04;78.26;98659.56;7389745;19;19926;-74
2022/11/30 07:37:03;;;;;;;;;;;;;;;8.20;78.14;98659.09;7395274;19;19923;-74
2022/11/30 07:39:32;;;;;;;;;;;;;;;8.30;78.06;98657.31;7391629;19;19926;-74
2022/11/30 07:41:58;;;;;;;;;;;;;;;8.18;78.18;98660.19;7393536;19;19961;-75
2022/11/30 07:44:25;;;;;;;;;;;;;;;8.21;78.14;98658.09;7388025;19;19915;-75
2022/11/30 07:46:54;;;;;;;;;;;;;;;8.21;78.65;98657.28;7394943;19;19919;-75
2022/11/30 07:49:23;;;;;;;;;;;;;;;8.25;78.59;98656.06;7391040;19;19919;-74
2022/11/30 07:51:51;;;;;;;;;;;;;;;8.24;79.25;98657.84;7388426;19;19974;-76
2022/11/30 07:54:18;;;;;;;;;;;;;;;8.24;79.25;98657.00;7389411;19;19929;-75
2022/11/30 07:56:58;;;;;;;;;;;;;;;8.32;79.41;98665.06;7391460;19;19978;-75
2022/11/30 07:59:29;;;;;;;;;;;;;;;8.52;79.27;98666.00;7391196;19;19918;-75
2022/11/30 08:01:56;;;;;;;;;;;;;;;8.66;78.75;98672.69;7396749;19;20262;-75
2022/11/30 08:04:24;;;;;;;;;;;;;;;8.78;78.43;98671.59;7391773;19;19919;-76
2022/11/30 08:06:51;;;;;;;;;;;;;;;8.78;77.88;98674.25;7392063;19;19923;-76
2022/11/30 08:09:18;;;;;;;;;;;;;;;8.86;78.22;98681.47;7388969;19;19943;-76
2022/11/30 08:11:47;;;;;;;;;;;;;;;8.77;77.62;98685.78;7390898;19;20334;-76
2022/11/30 08:14:13;;;;;;;;;;;;;;;8.72;78.19;98682.72;7388661;19;19929;-76
2022/11/30 08:16:42;;;;;;;;;;;;;;;8.90;77.00;98681.06;7392789;19;20310;-75
2022/11/30 08:19:09;;;;;;;;;;;;;;;8.95;75.96;98685.91;7391091;19;19923;-76
2022/11/30 08:21:36;;;;;;;;;;;;;;;8.70;76.73;98687.28;7389388;19;20326;-75
2022/11/30 08:24:03;;;;;;;;;;;;;;;8.62;77.55;98690.59;7387332;19;19948;-75
2022/11/30 08:26:31;;;;;;;;;;;;;;;8.76;77.12;98692.81;7389654;19;20574;-76
2022/11/30 08:28:58;;;;;;;;;;;;;;;8.78;76.87;98695.34;7381549;19;20464;-75
2022/11/30 08:31:29;;;;;;;;;;;;;;;8.55;77.24;98685.00;7387437;19;19914;-75
2022/11/30 08:33:56;;;;;;;;;;;;;;;8.68;76.74;98691.84;7390198;19;19933;-76
2022/11/30 08:36:24;;;;;;;;;;;;;;;8.52;77.32;98695.84;7387826;19;20546;-75
2022/11/30 08:38:50;;;;;;;;;;;;;;;8.65;75.92;98689.50;7383096;19;19927;-76
2022/11/30 08:41:18;;;;;;;;;;;;;;;8.54;77.01;98698.34;7388480;19;19962;-75
2022/11/30 08:43:45;;;;;;;;;;;;;;;8.55;76.93;98702.66;7389547;19;19951;-76
2022/11/30 08:46:12;;;;;;;;;;;;;;;8.69;76.46;98693.50;7382666;19;19994;-75
2022/11/30 08:48:59;;;;;;;;;;;;;;;8.50;77.17;98702.22;7384685;19;20485;-77
2022/11/30 08:51:47;;;;;;;;;;;;;;;8.49;77.47;98700.56;7390579;19;19925;-75
2022/11/30 08:54:34;;;;;;;;;;;;;;;8.67;76.93;98698.94;7386131;19;19919;-76
2022/11/30 08:57:01;;;;;;;;;;;;;;;8.52;76.87;98700.28;7386034;19;19927;-76
2022/11/30 08:59:32;;;;;;;;;;;;;;;8.48;76.72;98706.81;7384877;19;19919;-77
2022/11/30 09:01:58;;;;;;;;;;;;;;;8.52;77.30;98708.19;7387501;19;19918;-76
2022/11/30 09:04:25;;;;;;;;;;;;;;;8.48;75.82;98710.28;7385615;19;19939;-75
2022/11/30 09:06:51;;;;;;;;;;;;;;;8.72;76.16;98707.28;7390615;19;20649;-76
2022/11/30 09:09:18;;;;;;;;;;;;;;;8.71;76.24;98716.13;7385940;19;19986;-77
2022/11/30 09:11:45;;;;;;;;;;;;;;;8.76;76.94;98713.94;7387327;19;19943;-76
2022/11/30 09:14:12;;;;;;;;;;;;;;;8.81;76.51;98712.69;7380277;19;19940;-76
2022/11/30 09:16:38;;;;;;;;;;;;;;;8.90;75.64;98717.16;7386012;19;19931;-76
2022/11/30 09:19:05;;;;;;;;;;;;;;;8.88;76.52;98721.75;7385151;19;19951;-75
2022/11/30 09:21:32;;;;;;;;;;;;;;;8.89;75.31;98720.78;7387473;19;19919;-76
2022/11/30 09:23:58;;;;;;;;;;;;;;;8.98;73.36;98731.34;7387322;19;19919;-76
2022/11/30 09:26:25;;;;;;;;;;;;;;;8.81;75.22;98726.72;7388099;19;19961;-76
2022/11/30 09:28:52;;;;;;;;;;;;;;;8.93;73.42;98722.19;7386955;19;19914;-75
2022/11/30 09:31:20;;;;;;;;;;;;;;;8.88;74.32;98724.38;7387215;19;19926;-76
2022/11/30 09:33:47;;;;;;;;;;;;;;;8.86;74.99;98721.03;7388443;19;20292;-75
2022/11/30 09:36:14;;;;;;;;;;;;;;;8.79;74.61;98729.50;7385395;19;19939;-76
2022/11/30 09:38:41;;;;;;;;;;;;;;;8.65;75.05;98721.13;7385247;19;19936;-76
2022/11/30 09:41:14;;;;;;;;;;;;;;;8.67;75.09;98729.75;7385686;19;19919;-76
2022/11/30 09:43:44;;;;;;;;;;;;;;;8.41;75.99;98717.03;7388715;19;19915;-76
2022/11/30 09:46:11;;;;;;;;;;;;;;;8.48;75.01;98720.00;7384941;19;19915;-75
2022/11/30 09:48:54;;;;;;;;;;;;;;;8.63;75.38;98728.34;7384181;19;19931;-76
2022/11/30 09:51:22;;;;;;;;;;;;;;;8.33;76.31;98719.47;7386271;19;20371;-76
2022/11/30 09:53:54;;;;;;;;;;;;;;;8.35;75.85;98718.38;7388156;19;19922;-75
2022/11/30 09:56:29;;;;;;;;;;;;;;;8.36;76.36;98722.66;7384891;19;19926;-75
2022/11/30 09:58:59;;;;;;;;;;;;;;;8.49;76.05;98724.28;7387005;19;19922;-76
2022/11/30 10:01:25;;;;;;;;;;;;;;;8.45;76.18;98718.44;7387701;19;20342;-76
2022/11/30 10:03:58;;;;;;;;;;;;;;;8.54;76.64;98724.72;7382763;19;20092;-76
2022/11/30 10:06:25;;;;;;;;;;;;;;;8.46;75.67;98719.28;7386166;19;19927;-76
2022/11/30 10:08:58;;;;;;;;;;;;;;;8.50;75.96;98718.84;7386153;19;20368;-75
2022/11/30 10:11:37;;;;;;;;;;;;;;;8.71;74.86;98717.94;7385200;19;19915;-75
2022/11/30 10:14:23;;;;;;;;;;;;;;;8.81;72.88;98712.69;7387212;19;19915;-76
2022/11/30 10:17:04;;;;;;;;;;;;;;;8.95;72.30;98713.16;7388748;19;19927;-76
2022/11/30 10:19:31;;;;;;;;;;;;;;;8.93;72.68;98719.53;7384882;19;19919;-75
2022/11/30 10:22:08;;;;;;;;;;;;;;;8.91;73.16;98718.84;7385627;19;19929;-75
2022/11/30 10:24:46;;;;;;;;;;;;;;;8.97;73.71;98718.28;7383901;19;19911;-75
2022/11/30 10:27:15;;;;;;;;;;;;;;;8.93;73.59;98720.38;7386461;19;19927;-75
2022/11/30 10:29:45;;;;;;;;;;;;;;;9.15;73.70;98713.97;7384321;19;19911;-76
2022/11/30 10:32:17;;;;;;;;;;;;;;;9.08;73.74;98718.13;7384044;19;19953;-75
2022/11/30 10:34:48;;;;;;;;;;;;;;;8.96;74.87;98708.69;7382375;19;19923;-75
2022/11/30 10:37:19;;;;;;;;;;;;;;;9.07;73.62;98715.66;7383838;19;19911;-76
2022/11/30 10:39:56;;;;;;;;;;;;;;;9.29;71.29;98714.53;7383093;19;19955;-75
2022/11/30 10:42:27;;;;;;;;;;;;;;;9.16;72.41;98705.13;7381508;19;20017;-76
2022/11/30 10:44:58;;;;;;;;;;;;;;;9.10;73.26;98705.66;7382055;19;19925;-77
2022/11/30 10:47:25;;;;;;;;;;;;;;;9.02;73.78;98711.59;7384490;19;19934;-76
2022/11/30 10:49:52;;;;;;;;;;;;;;;8.93;71.91;98709.81;7381616;19;20347;-76
2022/11/30 10:52:26;;;;;;;;;;;;;;;9.17;71.92;98705.94;7384356;19;19922;-75
2022/11/30 10:54:53;;;;;;;;;;;;;;;9.01;72.72;98706.50;7384280;19;19927;-75
2022/11/30 10:57:30;;;;;;;;;;;;;;;9.09;71.61;98701.34;7384569;19;19926;-75
2022/11/30 10:59:57;;;;;;;;;;;;;;;9.16;72.52;98705.13;7383777;19;19947;-76
2022/11/30 11:02:41;;;;;;;;;;;;;;;9.16;73.17;98693.69;7392294;19;20635;-75
2022/11/30 11:05:08;;;;;;;;;;;;;;;9.19;71.68;98694.28;7389553;19;20588;-76
2022/11/30 11:07:42;;;;;;;;;;;;;;;9.28;71.13;98697.03;7395428;19;19947;-75
2022/11/30 11:10:11;;;;;;;;;;;;;;;9.41;70.04;98689.66;7387784;19;19918;-76
2022/11/30 11:12:37;;;;;;;;;;;;;;;9.25;71.39;98702.59;7386754;19;19922;-75
2022/11/30 11:15:21;;;;;;;;;;;;;;;9.31;71.36;98699.41;7389071;19;19914;-76
2022/11/30 11:17:48;;;;;;;;;;;;;;;9.20;71.77;98701.22;7394379;19;19949;-76
2022/11/30 11:20:34;;;;;;;;;;;;;;;9.21;71.46;98702.03;7389969;19;19919;-75
2022/11/30 11:23:01;;;;;;;;;;;;;;;9.16;71.98;98704.25;7391867;19;19938;-75
2022/11/30 11:25:35;;;;;;;;;;;;;;;9.14;72.53;98701.78;7389333;19;19923;-76
2022/11/30 11:28:03;;;;;;;;;;;;;;;9.05;70.89;98707.03;7383023;19;19925;-76
2022/11/30 11:30:30;;;;;;;;;;;;;;;8.96;71.70;98698.97;7385638;19;20280;-76
2022/11/30 11:32:58;;;;;;;;;;;;;;;8.92;72.66;98702.03;7387541;19;20255;-75
2022/11/30 11:35:31;;;;;;;;;;;;;;;9.08;72.46;98704.13;7388616;19;19934;-75
2022/11/30 11:37:57;;;;;;;;;;;;;;;9.12;72.09;98700.25;7392566;19;20247;-75
2022/11/30 11:40:24;;;;;;;;;;;;;;;9.17;72.26;98698.84;7392967;19;19957;-75
2022/11/30 11:42:51;;;;;;;;;;;;;;;9.32;71.41;98695.78;7389769;19;19940;-76
2022/11/30 11:45:21;;;;;;;;;;;;;;;9.28;72.84;98700.50;7387174;19;19943;-76
2022/11/30 11:47:58;;;;;;;;;;;;;;;9.44;72.17;98702.59;7389872;19;20405;-75
2022/11/30 11:50:29;;;;;;;;;;;;;;;9.72;71.93;98700.88;7385772;19;19930;-76
2022/11/30 11:53:23;;;;;;;;;;;;;;;9.92;71.23;98704.31;7389499;19;20055;-75
2022/11/30 11:55:51;;;;;;;;;;;;;;;9.73;70.55;98702.53;7392070;19;19919;-76
2022/11/30 11:58:20;;;;;;;;;;;;;;;9.82;71.01;98704.34;7390974;19;19923;-75
2022/11/30 12:00:47;;;;;;;;;;;;;;;9.74;71.06;98704.22;7387311;19;20274;-75
2022/11/30 12:03:17;;;;;;;;;;;;;;;9.36;70.82;98694.53;7390161;19;19926;-75
2022/11/30 12:05:48;;;;;;;;;;;;;;;9.43;71.37;98687.72;7388347;19;20403;-75
2022/11/30 12:08:36;;;;;;;;;;;;;;;9.38;71.75;98689.97;7386317;19;20365;-76
2022/11/30 12:11:12;;;;;;;;;;;;;;;9.20;71.48;98689.81;7389098;19;19953;-75
2022/11/30 12:13:42;;;;;;;;;;;;;;;9.23;72.94;98693.00;7390702;19;20297;-75
2022/11/30 12:16:19;;;;;;;;;;;;;;;9.19;71.32;98688.16;7384550;19;20263;-75
2022/11/30 12:19:04;;;;;;;;;;;;;;;9.09;72.45;98688.16;7387951;19;19922;-75
2022/11/30 12:21:43;;;;;;;;;;;;;;;9.02;71.36;98685.22;7389401;19;19919;-75
2022/11/30 12:24:10;;;;;;;;;;;;;;;9.07;71.99;98695.38;7386700;19;20346;-75
2022/11/30 12:26:38;;;;;;;;;;;;;;;8.84;73.39;98683.41;7391671;19;19919;-76
2022/11/30 12:29:04;;;;;;;;;;;;;;;8.89;73.56;98691.75;7383779;19;19915;-76
2022/11/30 12:31:38;;;;;;;;;;;;;;;8.76;72.25;98694.63;7387604;19;19918;-76
2022/11/30 12:34:37;;;;;;;;;;;;;;;9.00;72.67;98681.91;7384705;19;19931;-75
2022/11/30 12:37:14;;;;;;;;;;;;;;;8.94;72.75;98687.72;7387395;19;19929;-76
2022/11/30 12:40:02;;;;;;;;;;;;;;;8.99;72.95;98688.13;7385691;19;19923;-76
2022/11/30 12:42:35;;;;;;;;;;;;;;;8.94;73.24;98681.63;7389569;19;19922;-75
2022/11/30 12:45:02;;;;;;;;;;;;;;;9.17;72.92;98683.00;7386021;19;19922;-75
2022/11/30 12:47:32;;;;;;;;;;;;;;;9.26;72.90;98678.69;7387866;19;19943;-75
2022/11/30 12:50:18;;;;;;;;;;;;;;;9.50;72.71;98687.97;7386738;19;19951;-75
2022/11/30 12:53:00;;;;;;;;;;;;;;;9.59;72.34;98685.34;7385382;19;19922;-75
2022/11/30 12:55:42;;;;;;;;;;;;;;;9.31;71.52;98680.91;7383633;19;19971;-75
2022/11/30 12:58:18;;;;;;;;;;;;;;;9.16;72.55;98684.00;7387580;19;19927;-76
2022/11/30 13:00:54;;;;;;;;;;;;;;;9.35;72.18;98685.78;7382611;19;19933;-75
2022/11/30 13:03:41;;;;;;;;;;;;;;;9.39;71.30;98687.16;7384478;19;19922;-75
2022/11/30 13:06:12;;;;;;;;;;;;;;;9.43;71.89;98675.34;7380340;19;19923;-75
2022/11/30 13:08:48;;;;;;;;;;;;;;;9.27;71.78;98675.09;7381842;19;19919;-76
2022/11/30 13:11:22;;;;;;;;;;;;;;;9.44;72.23;98681.47;7386477;19;19923;-75